createdAt,value
2022-11-30T00:01:24.580Z,81.19
2022-11-30T00:03:58.015Z,81.26
2022-11-30T00:06:26.027Z,81.17
2022-11-30T00:08:56.880Z,81.18
2022-11-30T00:11:27.986Z,81.18
2022-11-30T00:13:55.922Z,81.29
2022-11-30T00:16:23.910Z,81.38
2022-11-30T00:18:51.810Z,81.47
2022-11-30T00:21:19.838Z,81.50
2022-11-30T00:23:48.762Z,81.46
2022-11-30T00:26:19.211Z,81.48
2022-11-30T00:28:47.234Z,81.33
2022-11-30T00:31:18.334Z,81.31
2022-11-30T00:33:46.421Z,81.18
2022-11-30T00:36:21.352Z,81.19
2022-11-30T00:38:51.297Z,81.25
2022-11-30T00:41:20.302Z,81.31
2022-11-30T00:43:48.508Z,81.39
2022-11-30T00:46:16.372Z,81.28
2022-11-30T00:48:43.848Z,81.27
2022-11-30T00:51:12.171Z,81.24
2022-11-30T00:53:40.553Z,81.39
2022-11-30T00:56:09.746Z,81.54
2022-11-30T00:58:37.739Z,81.54
2022-11-30T01:01:06.322Z,81.43
2022-11-30T01:03:34.623Z,81.46
2022-11-30T01:06:08.714Z,81.39
2022-11-30T01:08:36.959Z,81.39
2022-11-30T01:11:09.172Z,81.40
2022-11-30T01:13:37.062Z,81.40
2022-11-30T01:16:15.482Z,81.55
2022-11-30T01:18:44.261Z,81.48
2022-11-30T01:21:15.782Z,81.64
2022-11-30T01:23:43.912Z,81.58
2022-11-30T01:26:12.678Z,81.59
2022-11-30T01:28:40.749Z,81.61
2022-11-30T01:31:12.889Z,81.57
2022-11-30T01:33:42.679Z,81.66
2022-11-30T01:36:14.744Z,81.61
2022-11-30T01:38:49.766Z,81.66
2022-11-30T01:41:30.236Z,81.71
2022-11-30T01:44:09.032Z,81.77
2022-11-30T01:47:06.566Z,81.75
2022-11-30T01:49:44.282Z,81.77
2022-11-30T01:52:29.143Z,81.76
2022-11-30T01:55:02.140Z,81.83
2022-11-30T01:57:40.690Z,81.81
2022-11-30T02:00:13.562Z,81.94
2022-11-30T02:02:49.365Z,82.03
2022-11-30T02:05:18.380Z,82.02
2022-11-30T02:07:46.493Z,82.08
2022-11-30T02:10:28.050Z,82.09
2022-11-30T02:13:25.088Z,82.29
2022-11-30T02:16:23.464Z,82.16
2022-11-30T02:19:17.658Z,82.27
2022-11-30T02:22:24.110Z,82.29
2022-11-30T02:25:17.131Z,82.27
2022-11-30T02:28:14.839Z,82.22
2022-11-30T02:30:47.146Z,82.15
2022-11-30T02:33:22.911Z,82.01
2022-11-30T02:35:55.001Z,81.96
2022-11-30T02:38:25.913Z,81.93
2022-11-30T02:40:53.859Z,81.93
2022-11-30T02:43:24.991Z,81.95
2022-11-30T02:46:10.243Z,81.93
2022-11-30T02:48:55.507Z,81.95
2022-11-30T02:51:26.842Z,81.96
2022-11-30T02:53:55.139Z,82.05
2022-11-30T02:56:23.249Z,82.00
2022-11-30T02:58:51.512Z,81.99
2022-11-30T03:01:19.396Z,81.98
2022-11-30T03:03:47.314Z,82.08
2022-11-30T03:06:14.903Z,81.98
2022-11-30T03:08:42.440Z,81.99
2022-11-30T03:11:10.205Z,81.99
2022-11-30T03:13:38.046Z,82.02
2022-11-30T03:16:12.117Z,82.12
2022-11-30T03:18:40.509Z,82.13
2022-11-30T03:21:10.655Z,82.25
2022-11-30T03:23:38.925Z,82.34
2022-11-30T03:26:08.480Z,82.63
2022-11-30T03:28:37.112Z,82.50
2022-11-30T03:31:05.419Z,82.41
2022-11-30T03:33:32.981Z,82.37
2022-11-30T03:36:07.496Z,82.38
2022-11-30T03:38:35.337Z,82.36
2022-11-30T03:41:13.758Z,82.45
2022-11-30T03:43:41.930Z,82.48
2022-11-30T03:46:10.730Z,82.66
2022-11-30T03:48:40.571Z,82.57
2022-11-30T03:51:09.902Z,82.54
2022-11-30T03:53:38.330Z,82.54
2022-11-30T03:56:09.664Z,82.62
2022-11-30T03:58:37.579Z,82.67
2022-11-30T04:01:14.396Z,82.66
2022-11-30T04:03:43.022Z,82.68
2022-11-30T04:06:12.985Z,82.67
2022-11-30T04:08:42.047Z,82.69
2022-11-30T04:11:11.212Z,82.65
2022-11-30T04:13:41.009Z,82.69
2022-11-30T04:16:09.668Z,82.69
2022-11-30T04:18:38.730Z,82.82
2022-11-30T04:21:07.699Z,82.79
2022-11-30T04:23:38.755Z,82.82
2022-11-30T04:26:11.243Z,82.87
2022-11-30T04:28:39.298Z,82.87
2022-11-30T04:31:07.261Z,82.91
2022-11-30T04:33:35.244Z,82.90
2022-11-30T04:36:06.121Z,82.86
2022-11-30T04:38:36.207Z,82.81
2022-11-30T04:41:08.441Z,82.83
2022-11-30T04:43:36.604Z,82.90
2022-11-30T04:46:05.773Z,82.95
2022-11-30T04:48:34.412Z,82.93
2022-11-30T04:51:05.946Z,82.85
2022-11-30T04:53:35.485Z,82.80
2022-11-30T04:56:08.834Z,82.82
2022-11-30T04:58:38.546Z,82.86
2022-11-30T05:01:07.167Z,83.06
2022-11-30T05:03:35.134Z,83.30
2022-11-30T05:06:03.992Z,83.33
2022-11-30T05:08:31.626Z,83.20
2022-11-30T05:10:59.334Z,83.12
2022-11-30T05:13:27.372Z,83.13
2022-11-30T05:15:55.032Z,83.17
2022-11-30T05:18:23.059Z,83.28
2022-11-30T05:20:52.620Z,83.43
2022-11-30T05:23:21.631Z,83.62
2022-11-30T05:25:49.847Z,84.03
2022-11-30T05:28:17.588Z,84.02
2022-11-30T05:30:45.264Z,83.99
2022-11-30T05:33:12.802Z,83.99
2022-11-30T05:35:40.490Z,83.72
2022-11-30T05:38:08.060Z,83.56
2022-11-30T05:40:36.275Z,83.44
2022-11-30T05:43:05.084Z,83.31
2022-11-30T05:45:32.933Z,83.19
2022-11-30T05:48:00.873Z,83.12
2022-11-30T05:50:28.675Z,83.10
2022-11-30T05:52:59.599Z,83.04
2022-11-30T05:55:29.281Z,83.03
2022-11-30T05:57:56.965Z,83.03
2022-11-30T06:00:24.840Z,83.06
2022-11-30T06:02:57.797Z,83.11
2022-11-30T06:05:27.268Z,83.13
2022-11-30T06:07:55.065Z,83.21
2022-11-30T06:10:24.685Z,83.15
2022-11-30T06:12:52.642Z,83.02
2022-11-30T06:15:20.320Z,83.04
2022-11-30T06:17:48.173Z,82.99
2022-11-30T06:20:15.862Z,83.04
2022-11-30T06:22:47.244Z,83.15
2022-11-30T06:25:15.317Z,83.27
2022-11-30T06:27:43.140Z,83.37
2022-11-30T06:30:12.745Z,83.36
2022-11-30T06:32:42.302Z,83.38
2022-11-30T06:35:10.227Z,83.36
2022-11-30T06:37:37.842Z,83.35
2022-11-30T06:40:08.191Z,83.36
2022-11-30T06:42:37.414Z,83.27
2022-11-30T06:45:07.490Z,83.11
2022-11-30T06:47:35.591Z,82.94
2022-11-30T06:50:04.523Z,82.76
2022-11-30T06:52:32.561Z,82.72
2022-11-30T06:55:03.526Z,82.68
2022-11-30T06:57:31.461Z,82.64
2022-11-30T06:59:59.219Z,82.69
2022-11-30T07:02:27.223Z,82.87
2022-11-30T07:04:55.150Z,82.94
2022-11-30T07:07:23.231Z,83.02
2022-11-30T07:09:51.800Z,82.86
2022-11-30T07:12:19.565Z,82.36
2022-11-30T07:14:47.719Z,82.03
2022-11-30T07:17:16.408Z,82.14
2022-11-30T07:19:44.017Z,82.22
2022-11-30T07:22:11.847Z,82.32
2022-11-30T07:24:58.271Z,81.75
2022-11-30T07:27:25.964Z,81.64
2022-11-30T07:29:53.703Z,81.38
2022-11-30T07:32:21.552Z,81.14
2022-11-30T07:34:49.757Z,80.97
2022-11-30T07:37:18.168Z,80.94
2022-11-30T07:39:45.907Z,80.70
2022-11-30T07:42:13.925Z,80.72
2022-11-30T07:44:42.891Z,80.50
2022-11-30T07:47:10.761Z,80.64
2022-11-30T07:49:39.868Z,80.75
2022-11-30T07:52:08.249Z,80.97
2022-11-30T07:54:35.955Z,81.13
2022-11-30T07:57:04.457Z,81.20
2022-11-30T07:59:32.303Z,81.05
2022-11-30T08:02:00.360Z,80.97
2022-11-30T08:04:31.024Z,80.99
2022-11-30T08:06:59.008Z,80.64
2022-11-30T08:09:26.565Z,80.83
2022-11-30T08:11:54.123Z,81.17
2022-11-30T08:14:22.038Z,81.12
2022-11-30T08:16:50.139Z,81.16
2022-11-30T08:19:17.761Z,81.08
2022-11-30T08:21:45.721Z,80.82
2022-11-30T08:24:13.671Z,80.46
2022-11-30T08:26:41.871Z,80.32
2022-11-30T08:29:11.172Z,78.42
2022-11-30T08:31:39.440Z,78.49
2022-11-30T08:34:15.555Z,78.37
2022-11-30T08:36:48.886Z,77.94
2022-11-30T08:39:19.454Z,77.57
2022-11-30T08:41:47.291Z,76.81
2022-11-30T08:44:15.316Z,76.73
2022-11-30T08:46:51.440Z,76.20
2022-11-30T08:49:22.027Z,75.40
2022-11-30T08:52:15.425Z,75.15
2022-11-30T08:54:12.216Z,75.32
2022-11-30T08:56:40.317Z,75.08
2022-11-30T08:59:08.203Z,74.86
2022-11-30T09:01:38.497Z,74.73
2022-11-30T09:04:06.477Z,74.65
2022-11-30T09:06:34.546Z,74.59
2022-11-30T09:09:02.952Z,74.48
2022-11-30T09:11:33.522Z,74.70
2022-11-30T09:14:09.875Z,74.86
2022-11-30T09:16:38.195Z,74.66
2022-11-30T09:19:06.184Z,74.62
2022-11-30T09:21:34.240Z,74.49
2022-11-30T09:24:01.837Z,74.56
2022-11-30T09:26:29.554Z,74.43
2022-11-30T09:29:00.274Z,74.46
2022-11-30T09:31:28.676Z,74.52
2022-11-30T09:33:58.415Z,74.70
2022-11-30T09:36:29.441Z,74.49
2022-11-30T09:38:57.168Z,74.38
2022-11-30T09:41:42.350Z,74.52
2022-11-30T09:44:41.585Z,74.75
2022-11-30T09:47:33.199Z,74.86
2022-11-30T09:50:12.222Z,74.73
2022-11-30T09:52:50.853Z,74.53
2022-11-30T09:55:32.590Z,73.66
2022-11-30T09:58:05.399Z,73.85
2022-11-30T10:00:36.643Z,73.37
2022-11-30T10:03:06.332Z,72.05
2022-11-30T10:06:06.996Z,71.04
2022-11-30T10:08:55.641Z,71.06
2022-11-30T10:11:40.637Z,70.71
2022-11-30T10:18:36.643Z,70.34
2022-11-30T10:21:35.990Z,69.19
2022-11-30T10:24:50.894Z,68.35
2022-11-30T10:27:53.454Z,67.51
2022-11-30T10:30:25.122Z,66.83
2022-11-30T10:32:57.287Z,65.29
2022-11-30T10:35:47.344Z,64.87
2022-11-30T10:38:29.587Z,61.72
2022-11-30T10:41:11.657Z,62.41
2022-11-30T10:44:05.231Z,62.98
2022-11-30T10:46:40.502Z,62.62
2022-11-30T10:49:18.672Z,61.31
2022-11-30T10:51:52.853Z,61.75
2022-11-30T10:54:22.400Z,61.49
2022-11-30T10:56:50.353Z,61.24
2022-11-30T10:59:48.359Z,60.82
2022-11-30T11:02:45.472Z,60.51
2022-11-30T11:05:31.893Z,60.17
2022-11-30T11:08:18.060Z,59.72
2022-11-30T11:10:53.182Z,59.42
2022-11-30T11:13:40.360Z,59.11
2022-11-30T11:16:11.973Z,59.02
2022-11-30T11:18:55.873Z,58.66
2022-11-30T11:21:24.757Z,59.20
2022-11-30T11:23:56.202Z,59.23
2022-11-30T11:26:27.895Z,59.07
2022-11-30T11:28:59.097Z,59.23
2022-11-30T11:31:42.245Z,56.00
2022-11-30T11:34:33.126Z,57.76
2022-11-30T11:37:20.760Z,57.89
2022-11-30T11:40:15.427Z,58.36
2022-11-30T11:42:50.588Z,58.38
2022-11-30T11:45:22.040Z,59.06
2022-11-30T11:48:03.881Z,56.90
2022-11-30T11:53:26.184Z,57.84
2022-11-30T11:56:08.169Z,57.24
2022-11-30T11:58:51.450Z,58.26
2022-11-30T12:01:50.779Z,58.13
2022-11-30T12:04:53.220Z,58.58
2022-11-30T12:07:47.341Z,58.78
2022-11-30T12:10:54.247Z,59.03
2022-11-30T12:13:22.050Z,59.43
2022-11-30T12:16:14.068Z,59.74
2022-11-30T12:19:07.751Z,60.42
2022-11-30T12:21:44.287Z,60.76
2022-11-30T12:24:34.517Z,61.00
2022-11-30T12:27:16.911Z,60.70
2022-11-30T12:29:55.035Z,60.88
2022-11-30T12:32:53.326Z,60.73
2022-11-30T12:36:09.386Z,60.28
2022-11-30T12:38:55.076Z,60.07
2022-11-30T12:42:01.185Z,59.88
2022-11-30T12:45:00.628Z,59.62
2022-11-30T12:48:05.002Z,60.02
2022-11-30T12:50:56.658Z,59.92
2022-11-30T12:53:42.262Z,59.99
2022-11-30T12:56:45.707Z,60.44
2022-11-30T12:59:36.119Z,60.82
2022-11-30T13:02:33.116Z,61.43
2022-11-30T13:05:04.347Z,61.79
2022-11-30T13:07:43.719Z,62.11
2022-11-30T13:10:32.391Z,62.21
2022-11-30T13:13:16.201Z,62.27
2022-11-30T13:15:46.402Z,62.28
2022-11-30T13:18:18.623Z,62.05
2022-11-30T13:21:06.589Z,62.05
2022-11-30T13:24:11.256Z,61.95
2022-11-30T13:26:47.952Z,61.84
2022-11-30T13:29:39.065Z,61.96
2022-11-30T13:32:48.609Z,62.06
2022-11-30T13:34:46.217Z,62.15
2022-11-30T13:37:27.035Z,62.11
2022-11-30T13:39:56.310Z,62.36
2022-11-30T13:42:47.452Z,62.42
2022-11-30T13:45:18.010Z,62.39
2022-11-30T13:47:53.022Z,62.57
2022-11-30T13:50:28.932Z,62.76
2022-11-30T13:53:23.518Z,62.84
2022-11-30T13:56:01.818Z,62.96
2022-11-30T13:58:30.288Z,63.26
2022-11-30T14:04:23.048Z,63.74
2022-11-30T14:06:54.974Z,64.01
2022-11-30T14:09:49.178Z,64.31
2022-11-30T14:12:46.663Z,64.56
2022-11-30T14:15:43.108Z,64.95
2022-11-30T14:18:17.345Z,65.14
2022-11-30T14:21:05.699Z,65.40
2022-11-30T14:23:44.957Z,65.63
2022-11-30T14:26:38.695Z,65.84
2022-11-30T14:29:26.968Z,66.05
2022-11-30T14:32:15.041Z,66.40
2022-11-30T14:34:52.450Z,66.61
2022-11-30T14:37:28.644Z,66.90
2022-11-30T14:40:07.566Z,67.07
2022-11-30T14:42:37.004Z,67.15
2022-11-30T14:45:19.944Z,67.25
2022-11-30T14:47:53.461Z,67.52
2022-11-30T14:50:25.862Z,67.83
2022-11-30T14:53:11.063Z,68.01
2022-11-30T14:55:56.097Z,68.51
2022-11-30T14:58:46.478Z,68.77
2022-11-30T15:01:19.337Z,69.03
2022-11-30T15:03:49.910Z,69.53
2022-11-30T15:06:20.605Z,69.78
2022-11-30T15:08:55.344Z,70.01
2022-11-30T15:11:24.616Z,70.03
2022-11-30T15:13:56.974Z,69.88
2022-11-30T15:16:30.023Z,69.92
2022-11-30T15:18:59.719Z,69.89
2022-11-30T15:21:31.391Z,69.82
2022-11-30T15:24:01.287Z,69.77
2022-11-30T15:26:52.462Z,69.78
2022-11-30T15:29:25.789Z,70.16
2022-11-30T15:31:55.570Z,70.21
2022-11-30T15:34:34.307Z,70.09
2022-11-30T15:37:03.030Z,70.09
2022-11-30T15:39:32.237Z,70.14
2022-11-30T15:42:03.384Z,70.13
2022-11-30T15:44:45.940Z,70.24
2022-11-30T15:47:28.059Z,70.28
2022-11-30T15:49:55.623Z,70.70
2022-11-30T15:52:32.922Z,70.60
2022-11-30T15:55:02.816Z,70.64
2022-11-30T15:58:05.315Z,71.19
2022-11-30T16:00:36.741Z,71.20
2022-11-30T16:03:13.109Z,71.19
2022-11-30T16:05:40.868Z,71.23
2022-11-30T16:08:16.684Z,71.50
2022-11-30T16:10:44.377Z,71.47
2022-11-30T16:13:14.971Z,71.59
2022-11-30T16:15:51.912Z,71.62
2022-11-30T16:18:25.693Z,71.66
2022-11-30T16:20:57.655Z,71.70
2022-11-30T16:23:26.098Z,71.73
2022-11-30T16:25:54.519Z,71.73
2022-11-30T16:28:22.944Z,71.76
2022-11-30T16:30:51.537Z,71.77
2022-11-30T16:33:22.742Z,71.82
2022-11-30T16:36:17.588Z,71.89
2022-11-30T16:38:51.217Z,72.02
2022-11-30T16:41:29.188Z,72.01
2022-11-30T16:43:57.410Z,72.02
2022-11-30T16:46:27.913Z,72.16
2022-11-30T16:48:55.705Z,72.29
2022-11-30T16:51:31.256Z,72.36
2022-11-30T16:53:58.791Z,72.49
2022-11-30T16:56:29.734Z,72.64
2022-11-30T16:58:57.631Z,72.66
2022-11-30T17:01:35.645Z,72.87
2022-11-30T17:04:17.392Z,72.81
2022-11-30T17:06:49.823Z,72.97
2022-11-30T17:09:16.176Z,73.04
2022-11-30T17:11:52.203Z,73.15
2022-11-30T17:14:22.913Z,73.24
2022-11-30T17:19:38.319Z,73.44
2022-11-30T17:22:05.940Z,73.51
2022-11-30T17:24:34.223Z,73.83
2022-11-30T17:27:01.682Z,73.85
2022-11-30T17:29:31.930Z,73.93
2022-11-30T17:32:01.255Z,74.06
2022-11-30T17:34:30.575Z,74.15
2022-11-30T17:36:58.118Z,74.32
2022-11-30T17:39:25.472Z,74.40
2022-11-30T17:41:52.732Z,74.48
2022-11-30T17:44:20.727Z,74.92
2022-11-30T17:46:48.786Z,74.91
2022-11-30T17:49:16.243Z,74.85
2022-11-30T17:51:43.747Z,75.08
2022-11-30T17:54:13.408Z,75.11
2022-11-30T17:56:42.672Z,75.13
2022-11-30T17:59:10.502Z,75.23
2022-11-30T18:01:38.208Z,75.38
2022-11-30T18:04:05.882Z,75.30
2022-11-30T18:06:33.241Z,75.44
2022-11-30T18:09:00.563Z,75.47
2022-11-30T18:11:28.141Z,75.45
2022-11-30T18:13:59.175Z,75.44
2022-11-30T18:16:30.868Z,75.48
2022-11-30T18:18:59.314Z,75.46
2022-11-30T18:21:29.236Z,75.51
2022-11-30T18:23:58.281Z,75.50
2022-11-30T18:26:26.995Z,75.47
2022-11-30T18:28:59.081Z,75.44
2022-11-30T18:31:29.126Z,75.80
2022-11-30T18:34:04.046Z,75.76
2022-11-30T18:36:33.150Z,75.72
2022-11-30T18:39:00.781Z,75.65
2022-11-30T18:41:29.848Z,75.77
2022-11-30T18:43:58.016Z,75.90
2022-11-30T18:46:27.215Z,75.88
2022-11-30T18:48:54.791Z,75.85
2022-11-30T18:51:26.167Z,75.91
2022-11-30T18:53:59.325Z,75.96
2022-11-30T18:56:31.214Z,76.03
2022-11-30T18:59:03.097Z,76.15
2022-11-30T19:01:32.047Z,76.16
2022-11-30T19:04:04.131Z,76.11
2022-11-30T19:06:32.726Z,76.13
2022-11-30T19:09:08.508Z,76.11
2022-11-30T19:11:37.699Z,76.11
2022-11-30T19:14:06.007Z,76.14
2022-11-30T19:16:35.500Z,76.11
2022-11-30T19:19:07.742Z,76.14
2022-11-30T19:21:35.550Z,76.18
2022-11-30T19:24:03.504Z,76.22
2022-11-30T19:26:31.351Z,76.22
2022-11-30T19:28:59.238Z,76.22
2022-11-30T19:31:27.000Z,76.27
2022-11-30T19:33:55.854Z,76.26
2022-11-30T19:36:30.273Z,76.32
2022-11-30T19:39:00.327Z,76.43
2022-11-30T19:41:28.617Z,76.53
2022-11-30T19:44:03.596Z,76.51
2022-11-30T19:46:32.361Z,76.47
2022-11-30T19:49:02.034Z,76.64
2022-11-30T19:51:31.845Z,76.66
2022-11-30T19:54:00.855Z,76.63
2022-11-30T19:56:31.625Z,76.79
2022-11-30T19:59:04.610Z,76.85
2022-11-30T20:01:28.974Z,76.90
2022-11-30T20:03:57.858Z,76.94
2022-11-30T20:06:29.573Z,76.93
2022-11-30T20:08:57.416Z,77.02
2022-11-30T20:11:25.233Z,77.21
2022-11-30T20:13:53.087Z,77.15
2022-11-30T20:16:22.964Z,77.12
2022-11-30T20:18:57.732Z,77.19
2022-11-30T20:21:28.549Z,76.99
2022-11-30T20:23:59.794Z,76.89
2022-11-30T20:26:32.332Z,76.72
2022-11-30T20:29:02.736Z,76.52
2022-11-30T20:31:33.257Z,76.39
2022-11-30T20:34:02.722Z,76.28
2022-11-30T20:36:30.951Z,76.18
2022-11-30T20:39:02.301Z,76.14
2022-11-30T20:41:31.201Z,76.06
2022-11-30T20:43:58.634Z,75.91
2022-11-30T20:46:30.928Z,75.93
2022-11-30T20:48:59.927Z,75.91
2022-11-30T20:51:33.099Z,75.79
2022-11-30T20:54:07.233Z,75.84
2022-11-30T20:56:36.829Z,75.86
2022-11-30T20:59:08.307Z,75.96
2022-11-30T21:01:36.023Z,76.00
2022-11-30T21:04:05.081Z,76.01
2022-11-30T21:06:33.808Z,76.09
2022-11-30T21:09:04.343Z,76.14
2022-11-30T21:11:31.993Z,76.33
2022-11-30T21:13:59.924Z,76.43
2022-11-30T21:16:29.482Z,76.53
2022-11-30T21:19:01.820Z,76.57
2022-11-30T21:21:35.378Z,76.62
2022-11-30T21:24:07.518Z,76.70
2022-11-30T21:26:39.416Z,76.86
2022-11-30T21:29:15.456Z,76.82
2022-11-30T21:31:44.504Z,76.86
2022-11-30T21:34:12.521Z,76.85
2022-11-30T21:36:40.775Z,76.97
2022-11-30T21:39:11.800Z,76.95
2022-11-30T21:41:40.400Z,76.96
2022-11-30T21:44:12.162Z,76.94
2022-11-30T21:46:40.880Z,76.88
2022-11-30T21:49:11.240Z,76.88
2022-11-30T21:51:39.006Z,76.81
2022-11-30T21:54:11.257Z,76.80
2022-11-30T21:56:43.082Z,76.86
2022-11-30T21:59:13.746Z,76.98
2022-11-30T22:01:43.475Z,77.30
2022-11-30T22:04:13.712Z,77.61
2022-11-30T22:06:45.171Z,77.53
2022-11-30T22:09:16.345Z,77.61
2022-11-30T22:11:46.219Z,77.54
2022-11-30T22:14:16.823Z,77.46
2022-11-30T22:16:45.121Z,77.25
2022-11-30T22:19:12.820Z,77.53
2022-11-30T22:21:44.092Z,77.36
2022-11-30T22:24:14.144Z,76.49
2022-11-30T22:26:48.772Z,76.65
2022-11-30T22:29:22.538Z,76.52
2022-11-30T22:31:53.168Z,76.63
2022-11-30T22:34:23.217Z,76.75
2022-11-30T22:36:50.802Z,76.38
2022-11-30T22:39:21.007Z,76.60
2022-11-30T22:41:55.287Z,76.59
2022-11-30T22:44:19.890Z,76.67
2022-11-30T22:46:47.488Z,76.75
2022-11-30T22:49:21.072Z,76.88
2022-11-30T22:51:47.189Z,76.52
2022-11-30T22:54:14.972Z,76.74
2022-11-30T22:56:42.880Z,76.64
2022-11-30T22:59:12.512Z,76.81
2022-11-30T23:01:46.809Z,76.91
2022-11-30T23:04:20.643Z,77.13
2022-11-30T23:06:49.615Z,77.17
2022-11-30T23:09:21.719Z,77.46
2022-11-30T23:11:50.929Z,77.64
2022-11-30T23:14:18.932Z,77.54
2022-11-30T23:16:47.131Z,77.70
2022-11-30T23:19:15.579Z,78.12
2022-11-30T23:21:45.072Z,78.27
2022-11-30T23:24:19.552Z,78.27
2022-11-30T23:26:47.782Z,78.35
2022-11-30T23:29:17.197Z,78.48
2022-11-30T23:31:46.590Z,78.58
2022-11-30T23:34:19.368Z,78.60
2022-11-30T23:36:48.703Z,78.58
2022-11-30T23:39:19.573Z,78.59
2022-11-30T23:41:48.250Z,78.64
2022-11-30T23:44:16.442Z,78.73
2022-11-30T23:46:45.798Z,78.85
2022-11-30T23:49:14.357Z,78.87
2022-11-30T23:51:43.179Z,78.88
2022-11-30T23:54:11.449Z,78.89
2022-11-30T23:56:39.505Z,78.93
2022-11-30T23:59:07.451Z,79.15
